New Canaan, Connecticut
Current Conditions -  °F | °C
As of 7:56 PM on Saturday 22 Nov 2014 (Local Time) from KHPN Reporting Station
Overcast Overcast  
Wind Chill: 41°   Ceiling: 4000
Heat Index: 41°   Visibility: 10mi
Dew Point: 17°   Wind: 3mph
Humidity: 38%   Direction: 250°WSW
Pressure: 30.2"   Gusts: NA
Location:  41.15°N, 73.5°W
Report Text: KHPN 230056Z 25003KT 10SM BKN040 OVC070 05/M08 A3020 RMK AO2 SLP235 T00501083
Loading
Personal Weather Stations






























Interactive Weather Map New forecast layout! Learn more

10-Day Weather Forecast

Advertisements
Track Severe Weather on mobile